Time;durP1;ratioP1;P1;durP2;ratioP2;P2;SDS_P1;SDS_P2;PMS_P1;PMS_P2;Temp;Humidity;BMP_temperature;BMP_pressure;BME280_temperature;BME280_humidity;BME280_pressure;Samples;Min_cycle;Max_cycle;Signal;HPM_P1;HPM_P2
2022/06/21 00:00:02;;;;;;;;;;;14.40;70.30;;;;;;5020788;28;19917;-77
2022/06/21 00:02:27;;;;;;;;;;;14.30;70.40;;;;;;5020497;28;20253;-77
2022/06/21 00:04:54;;;;;;;;;;;14.10;70.50;;;;;;5022300;28;20012;-77
2022/06/21 00:07:22;;;;;;;;;;;14.00;71.00;;;;;;5038406;28;20340;-77
2022/06/21 00:09:48;;;;;;;;;;;14.00;71.00;;;;;;5009814;28;20282;-78
2022/06/21 00:12:13;;;;;;;;;;;14.00;71.50;;;;;;5033025;28;19917;-77
2022/06/21 00:14:40;;;;;;;;;;;13.90;71.70;;;;;;5036467;28;19917;-78
2022/06/21 00:17:05;;;;;;;;;;;13.80;71.60;;;;;;5039422;28;20316;-77
2022/06/21 00:19:31;;;;;;;;;;;13.80;72.20;;;;;;5037003;28;19924;-77
2022/06/21 00:21:57;;;;;;;;;;;13.80;71.80;;;;;;5026872;28;19917;-77
2022/06/21 00:24:22;;;;;;;;;;;13.80;71.60;;;;;;5021404;28;19921;-77
2022/06/21 00:26:48;;;;;;;;;;;13.70;71.80;;;;;;5031879;28;20308;-77
2022/06/21 00:29:14;;;;;;;;;;;13.70;71.70;;;;;;5024715;28;19928;-77
2022/06/21 00:31:41;;;;;;;;;;;13.70;71.60;;;;;;5023823;28;19925;-77
2022/06/21 00:34:12;;;;;;;;;;;13.80;71.50;;;;;;5044809;28;19921;-77
2022/06/21 00:36:37;;;;;;;;;;;13.70;72.60;;;;;;5031538;28;20412;-77
2022/06/21 00:39:03;;;;;;;;;;;13.60;73.20;;;;;;5037888;28;19978;-77
2022/06/21 00:41:36;;;;;;;;;;;13.60;73.90;;;;;;5037136;28;20168;-77
2022/06/21 00:44:03;;;;;;;;;;;13.70;73.70;;;;;;5041501;28;19913;-77
2022/06/21 00:46:47;;;;;;;;;;;13.60;73.70;;;;;;5014476;28;20003;-77
2022/06/21 00:49:23;;;;;;;;;;;13.60;73.70;;;;;;5022767;28;19927;-76
2022/06/21 00:51:49;;;;;;;;;;;13.60;73.90;;;;;;5016553;28;19959;-77
2022/06/21 00:54:17;;;;;;;;;;;13.60;73.80;;;;;;5040996;28;19913;-77
2022/06/21 00:57:03;;;;;;;;;;;13.60;73.50;;;;;;5031506;28;20313;-77
2022/06/21 00:59:30;;;;;;;;;;;13.60;73.30;;;;;;5032157;28;20449;-77
2022/06/21 01:01:58;;;;;;;;;;;13.50;73.70;;;;;;5020743;28;19966;-77
2022/06/21 01:04:29;;;;;;;;;;;13.50;73.60;;;;;;5044638;28;19913;-77
2022/06/21 01:06:56;;;;;;;;;;;13.40;73.50;;;;;;5034364;28;19928;-77
2022/06/21 01:09:27;;;;;;;;;;;13.30;74.30;;;;;;5023016;28;19913;-77
2022/06/21 01:12:08;;;;;;;;;;;13.30;74.50;;;;;;5040193;28;19919;-77
2022/06/21 01:14:35;;;;;;;;;;;13.30;74.60;;;;;;5038282;28;19913;-77
2022/06/21 01:17:00;;;;;;;;;;;13.40;74.50;;;;;;5036622;28;20011;-77
2022/06/21 01:19:49;;;;;;;;;;;13.50;74.10;;;;;;5039400;28;20003;-77
2022/06/21 01:22:14;;;;;;;;;;;13.40;74.20;;;;;;5022314;28;19986;-77
2022/06/21 01:24:48;;;;;;;;;;;13.30;73.60;;;;;;5027992;28;20480;-77
2022/06/21 01:27:14;;;;;;;;;;;13.20;73.80;;;;;;5031519;28;20282;-77
2022/06/21 01:29:40;;;;;;;;;;;13.20;74.10;;;;;;5040128;28;19927;-77
2022/06/21 01:32:06;;;;;;;;;;;13.10;73.90;;;;;;5044105;28;19913;-77
2022/06/21 01:34:32;;;;;;;;;;;13.10;74.30;;;;;;5044948;28;20105;-77
2022/06/21 01:37:06;;;;;;;;;;;13.00;74.50;;;;;;5033959;28;19909;-77
2022/06/21 01:39:41;;;;;;;;;;;13.00;75.20;;;;;;5031935;28;20011;-77
2022/06/21 01:42:09;;;;;;;;;;;13.00;75.00;;;;;;5019187;28;20735;-77
2022/06/21 01:44:37;;;;;;;;;;;13.00;75.00;;;;;;5037191;28;20003;-77
2022/06/21 01:47:06;;;;;;;;;;;13.00;74.70;;;;;;5035378;28;20262;-77
2022/06/21 01:49:33;;;;;;;;;;;12.90;75.10;;;;;;5036176;28;19913;-78
2022/06/21 01:52:02;;;;;;;;;;;12.90;75.20;;;;;;5017615;28;19952;-77
2022/06/21 01:54:29;;;;;;;;;;;12.80;75.50;;;;;;5040057;28;20219;-77
2022/06/21 01:56:55;;;;;;;;;;;12.80;75.90;;;;;;5014058;28;19913;-77
2022/06/21 01:59:27;;;;;;;;;;;12.80;75.70;;;;;;5035232;28;19979;-77
2022/06/21 02:02:04;;;;;;;;;;;12.60;75.80;;;;;;5042827;28;20386;-77
2022/06/21 02:04:31;;;;;;;;;;;12.70;75.60;;;;;;5036626;28;19959;-77
2022/06/21 02:07:00;;;;;;;;;;;12.60;76.10;;;;;;5038110;28;20285;-77
2022/06/21 02:09:40;;;;;;;;;;;12.60;76.30;;;;;;5021529;28;19924;-77
2022/06/21 02:12:07;;;;;;;;;;;12.60;76.60;;;;;;5040572;28;20395;-77
2022/06/21 02:14:37;;;;;;;;;;;12.60;76.50;;;;;;5036647;28;19982;-77
2022/06/21 02:17:05;;;;;;;;;;;12.60;76.70;;;;;;5041242;28;19939;-77
2022/06/21 02:19:34;;;;;;;;;;;12.60;76.30;;;;;;5020445;28;19917;-77
2022/06/21 02:22:00;;;;;;;;;;;12.60;76.00;;;;;;5026173;28;19939;-77
2022/06/21 02:24:28;;;;;;;;;;;12.60;75.90;;;;;;5027505;28;19981;-76
2022/06/21 02:26:55;;;;;;;;;;;12.50;75.70;;;;;;5019088;28;19916;-77
2022/06/21 02:29:20;;;;;;;;;;;12.50;75.90;;;;;;5038824;28;19916;-77
2022/06/21 02:31:46;;;;;;;;;;;12.40;76.40;;;;;;5037429;28;19920;-77
2022/06/21 02:34:24;;;;;;;;;;;12.40;77.20;;;;;;5040102;28;20327;-77
2022/06/21 02:36:55;;;;;;;;;;;12.30;77.10;;;;;;5036461;28;20344;-77
2022/06/21 02:39:23;;;;;;;;;;;12.30;76.80;;;;;;5044953;28;19925;-77
2022/06/21 02:42:08;;;;;;;;;;;12.30;76.50;;;;;;5040633;28;20377;-77
2022/06/21 02:44:34;;;;;;;;;;;12.30;77.00;;;;;;5039098;28;19920;-77
2022/06/21 02:47:02;;;;;;;;;;;12.30;77.30;;;;;;5038486;28;19916;-77
2022/06/21 02:49:31;;;;;;;;;;;12.30;77.10;;;;;;5013196;28;19913;-77
2022/06/21 02:51:59;;;;;;;;;;;12.30;77.70;;;;;;5014527;28;20457;-77
2022/06/21 02:54:26;;;;;;;;;;;12.30;77.80;;;;;;5041892;28;19919;-77
2022/06/21 02:56:56;;;;;;;;;;;12.40;77.40;;;;;;5040718;28;19939;-77
2022/06/21 02:59:21;;;;;;;;;;;12.40;77.30;;;;;;5044283;28;19925;-77
2022/06/21 03:01:50;;;;;;;;;;;12.40;76.10;;;;;;5018369;28;19913;-78
2022/06/21 03:04:20;;;;;;;;;;;12.30;76.50;;;;;;5042420;28;19920;-77
2022/06/21 03:06:46;;;;;;;;;;;12.30;76.90;;;;;;5038009;28;19912;-77
2022/06/21 03:09:14;;;;;;;;;;;12.30;77.30;;;;;;5028614;28;20385;-78
2022/06/21 03:11:41;;;;;;;;;;;12.30;77.60;;;;;;5040354;28;19991;-77
2022/06/21 03:14:11;;;;;;;;;;;12.30;77.70;;;;;;5044870;28;19924;-77
2022/06/21 03:16:36;;;;;;;;;;;12.20;78.10;;;;;;5026165;28;19913;-77
2022/06/21 03:19:04;;;;;;;;;;;12.30;78.10;;;;;;5050081;28;20369;-77
2022/06/21 03:21:30;;;;;;;;;;;12.30;77.80;;;;;;5035592;28;19917;-77
2022/06/21 03:23:57;;;;;;;;;;;12.40;77.40;;;;;;5025882;28;19917;-77
2022/06/21 03:26:23;;;;;;;;;;;12.40;77.50;;;;;;5044483;28;19923;-77
2022/06/21 03:28:51;;;;;;;;;;;12.40;77.40;;;;;;5066356;22;19921;-81
2022/06/21 03:31:20;;;;;;;;;;;12.30;77.40;;;;;;5039951;28;19931;-81
2022/06/21 03:33:47;;;;;;;;;;;12.30;77.00;;;;;;5045195;28;19932;-82
2022/06/21 03:36:15;;;;;;;;;;;12.20;77.90;;;;;;5016949;28;19913;-82
2022/06/21 03:38:42;;;;;;;;;;;12.20;77.90;;;;;;5035163;28;19917;-82
2022/06/21 03:43:57;;;;;;;;;;;12.30;77.90;;;;;;5049274;28;19967;-82
2022/06/21 03:46:38;;;;;;;;;;;12.30;78.10;;;;;;5033335;28;20387;-82
2022/06/21 03:49:12;;;;;;;;;;;12.20;78.50;;;;;;5051080;28;19913;-82
2022/06/21 03:51:39;;;;;;;;;;;12.30;78.10;;;;;;5048331;28;19967;-81
2022/06/21 03:54:08;;;;;;;;;;;12.30;77.80;;;;;;5051576;28;19917;-82
2022/06/21 03:56:40;;;;;;;;;;;12.30;77.50;;;;;;5052708;28;20027;-82
2022/06/21 03:59:28;;;;;;;;;;;12.10;77.70;;;;;;5025845;28;19913;-81
2022/06/21 04:02:03;;;;;;;;;;;12.10;77.50;;;;;;5052348;28;20042;-81
2022/06/21 04:04:37;;;;;;;;;;;11.90;78.10;;;;;;5051811;28;19937;-82
2022/06/21 04:07:12;;;;;;;;;;;11.90;78.20;;;;;;5055470;28;19936;-82
2022/06/21 04:09:46;;;;;;;;;;;11.90;78.60;;;;;;5029499;28;19916;-82
2022/06/21 04:12:22;;;;;;;;;;;11.90;78.50;;;;;;5034987;28;20016;-82
2022/06/21 04:15:14;;;;;;;;;;;11.90;79.20;;;;;;5042343;28;19943;-82
2022/06/21 04:17:58;;;;;;;;;;;12.00;80.40;;;;;;5038653;28;19962;-82
2022/06/21 04:20:34;;;;;;;;;;;12.10;80.00;;;;;;5036922;28;20028;-82
2022/06/21 04:23:05;;;;;;;;;;;12.30;78.90;;;;;;5054387;28;19921;-82
2022/06/21 04:25:54;;;;;;;;;;;12.30;79.10;;;;;;5044582;28;20368;-81
2022/06/21 04:28:23;;;;;;;;;;;12.30;78.90;;;;;;5039486;28;19975;-83
2022/06/21 04:31:07;;;;;;;;;;;12.40;78.90;;;;;;5042580;28;20340;-85
2022/06/21 04:33:38;;;;;;;;;;;12.50;79.50;;;;;;5027148;28;19931;-83
2022/06/21 04:36:08;;;;;;;;;;;12.60;78.80;;;;;;5030941;28;19917;-82
2022/06/21 04:38:43;;;;;;;;;;;12.70;79.50;;;;;;5034410;28;19923;-81
2022/06/21 04:41:17;;;;;;;;;;;12.80;79.00;;;;;;5030111;28;19921;-82
2022/06/21 04:43:49;;;;;;;;;;;12.70;79.80;;;;;;5049218;28;20268;-81
2022/06/21 04:46:24;;;;;;;;;;;12.80;80.10;;;;;;5026653;28;20148;-84
2022/06/21 04:49:08;;;;;;;;;;;12.90;80.40;;;;;;5028571;28;20285;-83
2022/06/21 04:51:37;;;;;;;;;;;12.90;79.80;;;;;;5049026;28;19915;-85
2022/06/21 04:54:04;;;;;;;;;;;13.00;80.10;;;;;;5025235;28;20374;-83
2022/06/21 04:56:30;;;;;;;;;;;13.10;79.10;;;;;;5043456;28;19940;-84
2022/06/21 04:58:55;;;;;;;;;;;13.10;79.10;;;;;;5041516;28;20368;-83
2022/06/21 05:01:30;;;;;;;;;;;13.10;79.00;;;;;;5017812;28;19917;-82
2022/06/21 05:03:58;;;;;;;;;;;13.20;78.80;;;;;;5031862;28;19963;-83
2022/06/21 05:06:24;;;;;;;;;;;13.30;78.20;;;;;;5025941;28;19920;-83
2022/06/21 05:08:50;;;;;;;;;;;13.40;78.40;;;;;;5033193;28;19913;-87
2022/06/21 05:11:16;;;;;;;;;;;13.50;79.20;;;;;;5037611;28;20953;-90
2022/06/21 05:13:49;;;;;;;;;;;13.60;78.30;;;;;;5045395;28;19956;-88
2022/06/21 05:16:22;;;;;;;;;;;13.60;78.30;;;;;;5043476;28;19956;-89
2022/06/21 05:19:12;;;;;;;;;;;13.70;78.50;;;;;;5037231;28;19913;-88
2022/06/21 05:21:39;;;;;;;;;;;13.90;77.70;;;;;;5036040;28;19923;-89
2022/06/21 05:24:05;;;;;;;;;;;14.00;77.70;;;;;;5032147;28;19913;-88
2022/06/21 05:26:34;;;;;;;;;;;14.10;77.80;;;;;;5037410;28;19975;-86
2022/06/21 05:29:20;;;;;;;;;;;14.10;77.60;;;;;;5047824;28;19917;-87
2022/06/21 05:31:47;;;;;;;;;;;14.20;77.20;;;;;;5037911;28;19917;-88
2022/06/21 05:34:19;;;;;;;;;;;14.20;76.50;;;;;;5036043;28;19963;-85
2022/06/21 05:36:53;;;;;;;;;;;14.20;75.60;;;;;;5035333;28;20073;-87
2022/06/21 05:39:31;;;;;;;;;;;14.30;75.70;;;;;;5038697;28;19913;-88
2022/06/21 05:41:59;;;;;;;;;;;14.30;75.90;;;;;;5046444;28;19919;-86
2022/06/21 05:44:25;;;;;;;;;;;14.40;75.30;;;;;;5033412;28;19923;-86
2022/06/21 05:46:54;;;;;;;;;;;14.50;75.70;;;;;;5030600;28;19913;-87
2022/06/21 05:49:28;;;;;;;;;;;14.50;74.40;;;;;;5039060;28;19901;-89
2022/06/21 05:51:55;;;;;;;;;;;14.50;74.50;;;;;;5067252;28;20210;-88
2022/06/21 05:54:23;;;;;;;;;;;14.60;74.70;;;;;;5059987;28;19924;-86
2022/06/21 05:56:49;;;;;;;;;;;14.90;73.10;;;;;;5033867;28;19913;-87
2022/06/21 05:59:16;;;;;;;;;;;14.80;73.80;;;;;;5053849;28;20001;-88
2022/06/21 06:01:49;;;;;;;;;;;14.70;73.70;;;;;;5034828;28;19916;-86
2022/06/21 06:04:21;;;;;;;;;;;14.70;73.00;;;;;;5030390;28;19913;-88
2022/06/21 06:06:47;;;;;;;;;;;14.80;72.90;;;;;;5047130;28;19916;-86
2022/06/21 06:09:16;;;;;;;;;;;14.80;73.20;;;;;;5036060;28;19967;-86
2022/06/21 06:12:05;;;;;;;;;;;15.00;72.80;;;;;;5050782;28;19939;-85
2022/06/21 06:14:30;;;;;;;;;;;15.10;72.10;;;;;;5042804;28;19921;-87
2022/06/21 06:16:57;;;;;;;;;;;15.00;71.60;;;;;;5026143;28;19920;-89
2022/06/21 06:19:28;;;;;;;;;;;15.00;71.50;;;;;;5029608;28;19917;-86
2022/06/21 06:22:06;;;;;;;;;;;15.10;71.90;;;;;;5040786;28;20337;-85
2022/06/21 06:24:36;;;;;;;;;;;15.10;71.80;;;;;;5039907;28;20009;-83
2022/06/21 06:27:06;;;;;;;;;;;15.20;71.80;;;;;;5040066;28;19928;-87
2022/06/21 06:29:41;;;;;;;;;;;15.40;72.10;;;;;;5037357;28;19916;-83
2022/06/21 06:32:07;;;;;;;;;;;15.60;70.60;;;;;;5018897;28;19913;-82
2022/06/21 06:34:35;;;;;;;;;;;15.60;69.90;;;;;;5046633;28;19948;-82
2022/06/21 06:37:08;;;;;;;;;;;15.60;70.00;;;;;;5058364;28;19908;-81
2022/06/21 06:39:35;;;;;;;;;;;15.60;69.30;;;;;;5069317;28;19913;-82
2022/06/21 06:42:04;;;;;;;;;;;15.70;68.90;;;;;;5045169;28;19905;-89
2022/06/21 06:44:33;;;;;;;;;;;15.80;69.00;;;;;;5048149;28;19920;-87
2022/06/21 06:47:01;;;;;;;;;;;15.80;68.20;;;;;;5050215;28;19986;-84
2022/06/21 06:49:30;;;;;;;;;;;15.80;66.90;;;;;;5048906;28;19946;-87
2022/06/21 06:52:13;;;;;;;;;;;15.90;67.80;;;;;;5049666;28;20336;-84
2022/06/21 06:54:38;;;;;;;;;;;15.90;67.30;;;;;;5027536;28;19966;-85
2022/06/21 06:57:16;;;;;;;;;;;16.00;67.30;;;;;;5036508;28;20527;-85
2022/06/21 06:59:43;;;;;;;;;;;16.00;67.40;;;;;;5032554;28;19921;-83
2022/06/21 07:02:21;;;;;;;;;;;16.10;66.60;;;;;;5050533;28;19921;-84
2022/06/21 07:04:49;;;;;;;;;;;16.40;65.10;;;;;;5057979;28;19909;-85
2022/06/21 07:07:32;;;;;;;;;;;16.20;66.20;;;;;;5055114;28;19928;-85
2022/06/21 07:10:02;;;;;;;;;;;16.20;66.30;;;;;;5032547;28;20055;-86
2022/06/21 07:12:28;;;;;;;;;;;16.30;66.80;;;;;;5018204;28;19917;-86
2022/06/21 07:14:55;;;;;;;;;;;16.30;67.20;;;;;;5034274;28;19929;-83
2022/06/21 07:17:41;;;;;;;;;;;16.50;66.20;;;;;;5049661;28;20252;-85
2022/06/21 07:20:29;;;;;;;;;;;16.50;66.10;;;;;;5024294;28;20351;-85
2022/06/21 07:22:58;;;;;;;;;;;16.60;66.60;;;;;;5017661;28;20011;-83
2022/06/21 07:25:29;;;;;;;;;;;16.70;66.40;;;;;;5029302;28;20347;-83
2022/06/21 07:27:57;;;;;;;;;;;16.80;65.80;;;;;;5047864;28;20329;-84
2022/06/21 07:30:26;;;;;;;;;;;16.90;65.70;;;;;;5053303;28;19920;-82
2022/06/21 07:33:01;;;;;;;;;;;16.70;64.90;;;;;;5037775;28;20007;-83
2022/06/21 07:35:32;;;;;;;;;;;16.60;63.80;;;;;;5039827;28;20055;-83
2022/06/21 07:38:08;;;;;;;;;;;16.70;64.40;;;;;;5026230;28;20343;-83
2022/06/21 07:40:40;;;;;;;;;;;16.80;65.00;;;;;;5047193;28;19924;-83
2022/06/21 07:43:15;;;;;;;;;;;17.00;63.50;;;;;;5031123;28;19917;-83
2022/06/21 07:45:44;;;;;;;;;;;17.10;63.60;;;;;;5047949;28;19967;-83
2022/06/21 07:48:13;;;;;;;;;;;17.10;64.20;;;;;;5027629;28;19957;-82
2022/06/21 07:50:42;;;;;;;;;;;17.20;63.70;;;;;;5053398;28;19920;-82
2022/06/21 07:53:23;;;;;;;;;;;17.30;62.70;;;;;;5050104;28;20394;-82
2022/06/21 07:55:58;;;;;;;;;;;17.30;62.70;;;;;;5052642;28;19943;-82
2022/06/21 07:58:38;;;;;;;;;;;17.40;62.90;;;;;;5048380;28;19959;-83
2022/06/21 08:06:44;;;;;;;;;;;17.60;62.20;;;;;;5042050;28;19979;-83
2022/06/21 08:09:13;;;;;;;;;;;17.70;61.90;;;;;;5043474;28;19913;-83
2022/06/21 08:11:40;;;;;;;;;;;17.80;61.80;;;;;;5042886;28;19913;-82
2022/06/21 08:14:07;;;;;;;;;;;18.00;59.90;;;;;;5057985;28;19921;-81
2022/06/21 08:16:46;;;;;;;;;;;18.00;60.80;;;;;;5044282;28;19909;-82
2022/06/21 08:19:22;;;;;;;;;;;18.10;58.90;;;;;;5052858;28;20072;-83
2022/06/21 08:21:51;;;;;;;;;;;18.10;59.10;;;;;;5021007;28;19923;-83
2022/06/21 08:24:19;;;;;;;;;;;18.10;58.40;;;;;;5043458;28;19927;-83
2022/06/21 08:26:51;;;;;;;;;;;17.80;58.20;;;;;;5042568;28;19972;-83
2022/06/21 08:29:24;;;;;;;;;;;17.80;56.90;;;;;;5050351;28;19974;-83
2022/06/21 08:31:53;;;;;;;;;;;18.00;57.90;;;;;;5053500;28;20277;-83
2022/06/21 08:34:25;;;;;;;;;;;18.10;59.50;;;;;;5041800;28;20332;-83
2022/06/21 08:36:55;;;;;;;;;;;18.20;56.10;;;;;;5046836;28;20007;-83
2022/06/21 08:39:39;;;;;;;;;;;18.20;57.40;;;;;;5052661;28;20003;-83
2022/06/21 08:42:20;;;;;;;;;;;18.30;55.60;;;;;;5033680;28;19930;-83
2022/06/21 08:45:40;;;;;;;;;;;18.60;54.90;;;;;;5034816;28;19956;-83
2022/06/21 08:47:59;;;;;;;;;;;18.50;55.90;;;;;;5050003;28;19956;-82
2022/06/21 08:50:43;;;;;;;;;;;18.50;57.30;;;;;;5039471;28;19920;-83
2022/06/21 08:53:21;;;;;;;;;;;18.50;57.90;;;;;;5035950;28;19941;-82
2022/06/21 08:55:52;;;;;;;;;;;18.50;56.90;;;;;;5040692;28;20217;-82
2022/06/21 08:58:28;;;;;;;;;;;18.60;54.80;;;;;;5048169;28;19913;-80
2022/06/21 09:00:59;;;;;;;;;;;18.50;55.50;;;;;;5049556;28;19963;-80
2022/06/21 09:03:40;;;;;;;;;;;18.60;55.90;;;;;;5039284;28;19947;-82
2022/06/21 09:06:11;;;;;;;;;;;18.60;55.10;;;;;;5037005;28;19927;-79
2022/06/21 09:08:46;;;;;;;;;;;18.80;52.50;;;;;;5051861;28;19913;-80
2022/06/21 09:11:35;;;;;;;;;;;19.00;52.70;;;;;;5023449;28;19912;-81
2022/06/21 09:14:13;;;;;;;;;;;18.80;53.00;;;;;;5032166;28;19929;-81
2022/06/21 09:16:51;;;;;;;;;;;18.80;54.30;;;;;;5051512;28;20278;-80
2022/06/21 09:19:20;;;;;;;;;;;19.10;53.10;;;;;;5039432;28;19913;-81
2022/06/21 09:21:56;;;;;;;;;;;19.10;51.20;;;;;;5050459;28;19913;-84
2022/06/21 09:24:29;;;;;;;;;;;19.00;52.70;;;;;;5059346;28;19959;-82
2022/06/21 09:26:58;;;;;;;;;;;19.10;53.40;;;;;;5039874;28;19945;-81
2022/06/21 09:29:30;;;;;;;;;;;19.00;53.60;;;;;;5073654;22;19927;-84
2022/06/21 09:32:02;;;;;;;;;;;19.20;54.30;;;;;;5038258;28;19971;-83
2022/06/21 09:34:40;;;;;;;;;;;19.60;52.30;;;;;;5032748;28;20350;-83
2022/06/21 09:37:22;;;;;;;;;;;19.60;51.10;;;;;;5025716;28;19942;-83
2022/06/21 09:39:50;;;;;;;;;;;19.70;51.20;;;;;;5028499;28;19928;-84
2022/06/21 09:42:31;;;;;;;;;;;19.60;50.90;;;;;;5058236;28;19920;-84
2022/06/21 09:45:17;;;;;;;;;;;19.70;52.10;;;;;;5052722;28;19922;-82
2022/06/21 09:47:54;;;;;;;;;;;19.80;52.10;;;;;;5054635;28;19921;-83
2022/06/21 09:50:26;;;;;;;;;;;19.80;51.70;;;;;;5047748;28;19916;-84
2022/06/21 09:53:00;;;;;;;;;;;19.80;52.20;;;;;;5044809;28;19970;-84
2022/06/21 09:55:44;;;;;;;;;;;19.70;52.30;;;;;;5049480;28;19912;-83
2022/06/21 09:58:17;;;;;;;;;;;20.10;51.10;;;;;;5032990;28;20372;-83
2022/06/21 10:00:49;;;;;;;;;;;20.00;51.20;;;;;;5046365;28;19952;-82
2022/06/21 10:03:30;;;;;;;;;;;20.10;51.30;;;;;;5045231;28;20504;-84
2022/06/21 10:06:05;;;;;;;;;;;20.10;51.20;;;;;;5035488;28;19912;-84
2022/06/21 10:08:49;;;;;;;;;;;19.80;51.60;;;;;;5048668;28;19913;-83
2022/06/21 10:11:20;;;;;;;;;;;19.80;52.70;;;;;;5052612;28;19959;-83
2022/06/21 10:14:04;;;;;;;;;;;19.90;53.20;;;;;;5044937;28;20024;-83
2022/06/21 10:16:39;;;;;;;;;;;20.00;52.10;;;;;;5043513;28;19917;-84
2022/06/21 10:19:23;;;;;;;;;;;20.10;52.60;;;;;;5046090;28;19921;-83
2022/06/21 10:22:07;;;;;;;;;;;20.30;52.20;;;;;;5030481;28;19967;-83
2022/06/21 10:24:42;;;;;;;;;;;20.50;52.10;;;;;;5037445;28;19919;-85
2022/06/21 10:27:07;;;;;;;;;;;20.50;50.30;;;;;;5032862;28;19920;-84
2022/06/21 10:29:36;;;;;;;;;;;20.20;50.80;;;;;;5032576;28;19913;-84
2022/06/21 10:32:12;;;;;;;;;;;20.20;51.90;;;;;;5040210;28;19917;-84
2022/06/21 10:34:56;;;;;;;;;;;20.30;51.70;;;;;;5030628;28;19924;-88
2022/06/21 10:37:26;;;;;;;;;;;20.50;50.90;;;;;;5045534;28;19913;-86
2022/06/21 10:40:10;;;;;;;;;;;20.40;50.60;;;;;;5045033;28;19963;-83
2022/06/21 10:42:48;;;;;;;;;;;20.50;51.30;;;;;;5048152;28;19917;-84
2022/06/21 10:45:21;;;;;;;;;;;20.50;51.50;;;;;;5044126;28;20062;-87
2022/06/21 10:48:08;;;;;;;;;;;20.60;50.80;;;;;;5032415;28;19913;-87
2022/06/21 10:50:34;;;;;;;;;;;20.60;52.00;;;;;;5042085;28;19916;-86
2022/06/21 10:53:11;;;;;;;;;;;20.60;50.80;;;;;;5018177;28;19920;-86
2022/06/21 10:57:09;;;;;;;;;;;20.40;51.50;;;;;;5025181;28;19913;-83
2022/06/21 10:58:56;;;;;;;;;;;20.30;50.60;;;;;;5056429;28;19913;-84
2022/06/21 11:01:32;;;;;;;;;;;20.10;51.20;;;;;;5030793;28;19917;-85
2022/06/21 11:04:09;;;;;;;;;;;20.20;52.90;;;;;;5028938;28;19959;-85
2022/06/21 11:06:34;;;;;;;;;;;20.40;51.70;;;;;;5022667;28;19965;-86
2022/06/21 11:09:07;;;;;;;;;;;20.60;50.70;;;;;;5020569;28;19924;-85
2022/06/21 11:11:52;;;;;;;;;;;20.60;50.10;;;;;;5028109;28;19966;-83
2022/06/21 11:14:26;;;;;;;;;;;20.90;49.20;;;;;;5041161;28;19925;-82
2022/06/21 11:17:01;;;;;;;;;;;20.90;48.20;;;;;;5047873;28;19914;-86
2022/06/21 11:19:45;;;;;;;;;;;20.90;48.20;;;;;;5049028;28;19932;-86
2022/06/21 11:22:22;;;;;;;;;;;21.00;48.40;;;;;;5023500;28;19968;-82
2022/06/21 11:25:06;;;;;;;;;;;21.10;47.80;;;;;;5047576;28;19944;-84
2022/06/21 11:27:36;;;;;;;;;;;21.00;48.90;;;;;;5048536;28;19912;-82
2022/06/21 11:30:05;;;;;;;;;;;20.90;48.60;;;;;;5033746;28;20047;-86
2022/06/21 11:32:33;;;;;;;;;;;20.80;49.00;;;;;;5054826;28;19913;-85
2022/06/21 11:35:19;;;;;;;;;;;20.80;49.20;;;;;;5034310;28;19912;-82
2022/06/21 11:37:53;;;;;;;;;;;20.70;51.00;;;;;;5036784;28;21354;-86
2022/06/21 11:40:33;;;;;;;;;;;20.80;50.50;;;;;;5030571;28;20000;-85
2022/06/21 11:42:58;;;;;;;;;;;20.60;49.80;;;;;;5032443;28;19913;-82
2022/06/21 11:45:35;;;;;;;;;;;20.80;50.20;;;;;;5046990;28;20286;-82
2022/06/21 11:48:21;;;;;;;;;;;21.10;47.90;;;;;;5029050;28;19936;-83
2022/06/21 11:50:49;;;;;;;;;;;20.90;48.10;;;;;;5030427;28;19917;-85
2022/06/21 11:53:18;;;;;;;;;;;20.90;49.50;;;;;;5049106;28;19920;-85
2022/06/21 11:55:46;;;;;;;;;;;20.90;49.90;;;;;;5041501;28;19932;-86
2022/06/21 11:58:18;;;;;;;;;;;20.80;50.60;;;;;;5025499;28;20138;-86
2022/06/21 12:00:47;;;;;;;;;;;20.70;49.60;;;;;;5029051;28;19983;-85
2022/06/21 12:03:37;;;;;;;;;;;20.80;48.90;;;;;;5034051;28;19913;-84
2022/06/21 12:06:10;;;;;;;;;;;21.10;49.40;;;;;;5032412;28;19943;-87
2022/06/21 12:08:39;;;;;;;;;;;21.30;48.30;;;;;;5038369;28;20373;-91
2022/06/21 12:11:23;;;;;;;;;;;21.30;47.90;;;;;;5027277;28;20299;-87
2022/06/21 12:14:09;;;;;;;;;;;21.40;48.20;;;;;;5028353;28;19924;-85
2022/06/21 12:16:44;;;;;;;;;;;21.70;47.10;;;;;;5040552;28;19920;-85
2022/06/21 12:19:19;;;;;;;;;;;21.90;45.40;;;;;;5053474;28;19943;-84
2022/06/21 12:21:54;;;;;;;;;;;21.70;48.10;;;;;;5038279;28;19921;-84
2022/06/21 12:24:22;;;;;;;;;;;21.70;46.70;;;;;;5015421;28;19909;-86
2022/06/21 12:26:47;;;;;;;;;;;21.80;46.10;;;;;;5041819;28;19909;-83
2022/06/21 12:29:15;;;;;;;;;;;21.50;47.20;;;;;;5040946;28;19971;-82
2022/06/21 12:31:44;;;;;;;;;;;21.60;46.90;;;;;;5069117;28;19913;-85
2022/06/21 12:34:11;;;;;;;;;;;21.70;45.60;;;;;;5056067;28;19913;-84
2022/06/21 12:36:40;;;;;;;;;;;21.60;46.10;;;;;;5050299;28;19924;-88
2022/06/21 12:39:05;;;;;;;;;;;21.60;48.10;;;;;;5047175;28;19912;-84
2022/06/21 12:41:46;;;;;;;;;;;21.70;46.50;;;;;;5026999;28;20350;-85
2022/06/21 12:44:11;;;;;;;;;;;21.60;45.90;;;;;;5044253;28;20364;-86
2022/06/21 12:46:41;;;;;;;;;;;21.50;46.20;;;;;;5049598;28;19909;-87
2022/06/21 12:49:12;;;;;;;;;;;21.50;45.70;;;;;;5056245;28;19917;-87
2022/06/21 12:51:56;;;;;;;;;;;21.40;46.30;;;;;;5051030;28;19912;-85
2022/06/21 12:54:27;;;;;;;;;;;21.60;46.60;;;;;;5052625;28;19981;-85
2022/06/21 12:56:56;;;;;;;;;;;21.60;46.90;;;;;;5011183;28;20032;-85
2022/06/21 12:59:24;;;;;;;;;;;21.80;47.00;;;;;;5001225;28;19959;-84
2022/06/21 13:02:00;;;;;;;;;;;21.80;46.20;;;;;;4954657;28;19920;-81
2022/06/21 13:04:29;;;;;;;;;;;22.10;45.10;;;;;;4983085;28;20064;-82
2022/06/21 13:07:14;;;;;;;;;;;22.60;43.70;;;;;;4954365;28;20190;-84
2022/06/21 13:09:49;;;;;;;;;;;22.60;43.30;;;;;;4973214;28;20366;-86
2022/06/21 13:12:43;;;;;;;;;;;22.50;44.40;;;;;;5000632;28;20520;-83
2022/06/21 13:15:38;;;;;;;;;;;22.50;44.90;;;;;;4938007;28;19917;-84
2022/06/21 13:18:23;;;;;;;;;;;22.20;44.90;;;;;;4960403;28;20162;-85
2022/06/21 13:20:57;;;;;;;;;;;22.30;46.30;;;;;;4997718;28;19923;-88
2022/06/21 13:23:34;;;;;;;;;;;22.50;44.40;;;;;;4977808;28;20207;-88
2022/06/21 13:26:08;;;;;;;;;;;22.20;45.30;;;;;;4988438;28;20390;-87
2022/06/21 13:28:55;;;;;;;;;;;22.10;46.90;;;;;;4993821;28;19916;-81
2022/06/21 13:31:24;;;;;;;;;;;22.00;47.80;;;;;;4981998;28;19964;-81
2022/06/21 13:33:52;;;;;;;;;;;22.20;45.40;;;;;;4987072;28;20288;-82
2022/06/21 13:36:23;;;;;;;;;;;22.00;45.70;;;;;;4976070;28;19909;-88
2022/06/21 13:38:56;;;;;;;;;;;22.10;45.40;;;;;;4983390;28;20027;-86
2022/06/21 13:44:19;;;;;;;;;;;22.20;45.20;;;;;;5015464;28;19963;-90
2022/06/21 13:46:48;;;;;;;;;;;22.40;45.50;;;;;;4998140;28;19913;-88
2022/06/21 13:49:21;;;;;;;;;;;22.60;44.50;;;;;;5014012;28;19916;-88
2022/06/21 13:51:51;;;;;;;;;;;22.60;45.00;;;;;;4991035;28;20087;-86
2022/06/21 13:54:16;;;;;;;;;;;22.80;43.60;;;;;;5004389;28;20473;-87
2022/06/21 13:56:51;;;;;;;;;;;22.70;44.10;;;;;;4986837;28;19913;-86
2022/06/21 13:59:21;;;;;;;;;;;22.50;44.40;;;;;;5002541;28;20393;-85
2022/06/21 14:01:50;;;;;;;;;;;22.50;44.70;;;;;;5007857;28;19924;-85
2022/06/21 14:04:23;;;;;;;;;;;22.50;45.80;;;;;;5012872;28;19921;-86
2022/06/21 14:06:57;;;;;;;;;;;22.60;44.90;;;;;;5039007;28;19999;-86
2022/06/21 14:09:26;;;;;;;;;;;22.70;44.30;;;;;;5052630;28;19920;-85
2022/06/21 14:12:07;;;;;;;;;;;23.10;42.50;;;;;;5000202;28;19913;-87
2022/06/21 14:14:55;;;;;;;;;;;23.30;43.00;;;;;;5020394;28;20063;-87
2022/06/21 14:17:20;;;;;;;;;;;23.40;42.50;;;;;;5019090;28;19909;-85
2022/06/21 14:19:53;;;;;;;;;;;23.50;42.00;;;;;;5006474;28;20282;-88
2022/06/21 14:22:22;;;;;;;;;;;23.10;42.30;;;;;;4991258;28;19909;-86
2022/06/21 14:24:51;;;;;;;;;;;23.10;43.80;;;;;;4983048;28;20427;-87
2022/06/21 14:27:40;;;;;;;;;;;23.00;42.70;;;;;;5002933;28;19910;-87
2022/06/21 14:30:22;;;;;;;;;;;23.00;43.30;;;;;;5026139;28;20027;-86
2022/06/21 14:32:51;;;;;;;;;;;23.30;42.40;;;;;;5016316;28;19912;-86
2022/06/21 14:35:20;;;;;;;;;;;23.60;41.30;;;;;;4997971;28;20387;-87
2022/06/21 14:37:59;;;;;;;;;;;23.70;42.60;;;;;;4985452;28;19948;-86
2022/06/21 14:40:44;;;;;;;;;;;23.40;43.20;;;;;;4985733;28;19928;-87
2022/06/21 14:43:13;;;;;;;;;;;23.30;43.90;;;;;;5023947;28;19951;-85
2022/06/21 14:45:42;;;;;;;;;;;23.50;43.30;;;;;;5005056;28;20318;-87
2022/06/21 14:48:27;;;;;;;;;;;23.70;40.90;;;;;;5009538;28;20259;-90
2022/06/21 14:51:01;;;;;;;;;;;23.60;41.70;;;;;;4986772;28;20020;-85
2022/06/21 14:53:27;;;;;;;;;;;23.50;42.10;;;;;;5009515;28;20203;-87
2022/06/21 14:56:13;;;;;;;;;;;23.40;43.40;;;;;;5001536;28;20744;-85
2022/06/21 14:58:41;;;;;;;;;;;23.50;41.70;;;;;;4993443;28;19909;-86